createdAt,value
2023-04-22T00:02:17.483Z,12.40
2023-04-22T00:04:46.629Z,9.00
2023-04-22T00:07:15.828Z,12.50
2023-04-22T00:09:44.119Z,10.90
2023-04-22T00:12:12.494Z,12.10
2023-04-22T00:14:40.508Z,14.50
2023-04-22T00:17:08.369Z,12.40
2023-04-22T00:19:37.403Z,7.60
2023-04-22T00:22:05.754Z,10.80
2023-04-22T00:24:33.645Z,11.10
2023-04-22T00:27:01.392Z,10.00
2023-04-22T00:29:29.130Z,10.80
2023-04-22T00:31:56.958Z,10.90
2023-04-22T00:34:24.781Z,10.10
2023-04-22T00:36:52.652Z,11.30
2023-04-22T00:39:20.608Z,10.80
2023-04-22T00:41:48.396Z,13.40
2023-04-22T00:44:17.305Z,14.10
2023-04-22T00:46:46.121Z,12.60
2023-04-22T00:49:15.586Z,12.40
2023-04-22T00:51:43.932Z,12.90
2023-04-22T00:54:11.704Z,10.20
2023-04-22T00:56:39.910Z,11.30
2023-04-22T00:59:09.448Z,10.20
2023-04-22T01:01:37.713Z,13.70
2023-04-22T01:04:05.612Z,12.10
2023-04-22T01:06:35.447Z,11.60
2023-04-22T01:09:03.284Z,11.90
2023-04-22T01:11:31.647Z,11.90
2023-04-22T01:13:59.381Z,10.30
2023-04-22T01:16:29.026Z,11.10
2023-04-22T01:21:26.825Z,9.60
2023-04-22T01:23:54.599Z,10.60
2023-04-22T01:26:23.613Z,11.30
2023-04-22T01:28:52.022Z,12.20
2023-04-22T01:31:20.261Z,11.90
2023-04-22T01:33:48.483Z,11.00
2023-04-22T01:36:17.080Z,8.80
2023-04-22T01:38:45.221Z,9.80
2023-04-22T01:41:13.845Z,10.20
2023-04-22T01:43:42.960Z,11.80
2023-04-22T01:46:10.776Z,12.40
2023-04-22T01:48:38.674Z,9.30
2023-04-22T01:51:06.455Z,8.40
2023-04-22T01:53:34.274Z,13.30
2023-04-22T01:56:02.468Z,12.30
2023-04-22T01:58:30.869Z,9.80
2023-04-22T02:00:58.773Z,12.40
2023-04-22T02:03:26.657Z,10.60
2023-04-22T02:05:55.258Z,12.00
2023-04-22T02:08:23.366Z,12.90
2023-04-22T02:10:51.171Z,11.00
2023-04-22T02:13:18.959Z,14.60
2023-04-22T02:15:46.889Z,11.40
2023-04-22T02:18:14.655Z,13.60
2023-04-22T02:20:42.953Z,13.50
2023-04-22T02:23:11.497Z,11.40
2023-04-22T02:25:39.713Z,12.80
2023-04-22T02:28:08.590Z,13.00
2023-04-22T02:30:36.791Z,14.60
2023-04-22T02:33:06.731Z,12.30
2023-04-22T02:35:34.579Z,15.60
2023-04-22T02:38:02.999Z,12.40
2023-04-22T02:40:30.837Z,15.00
2023-04-22T02:42:58.642Z,11.20
2023-04-22T02:45:26.439Z,12.30
2023-04-22T02:47:54.313Z,12.90
2023-04-22T02:50:22.131Z,12.80
2023-04-22T02:52:49.942Z,15.00
2023-04-22T02:55:17.888Z,11.80
2023-04-22T02:57:46.144Z,11.20
2023-04-22T03:00:14.521Z,13.00
2023-04-22T03:02:42.506Z,16.80
2023-04-22T03:05:16.057Z,15.10
2023-04-22T03:07:44.666Z,13.10
2023-04-22T03:10:12.662Z,12.00
2023-04-22T03:12:40.891Z,12.40
2023-04-22T03:15:09.321Z,13.20
2023-04-22T03:17:37.221Z,9.90
2023-04-22T03:20:09.054Z,10.10
2023-04-22T03:22:36.987Z,13.10
2023-04-22T03:25:06.452Z,11.70
2023-04-22T03:27:34.286Z,12.40
2023-04-22T03:30:02.334Z,13.70
2023-04-22T03:32:30.696Z,14.50
2023-04-22T03:35:18.805Z,13.90
2023-04-22T03:37:48.137Z,12.50
2023-04-22T03:40:19.182Z,12.90
2023-04-22T03:42:47.163Z,12.50
2023-04-22T03:45:15.522Z,11.30
2023-04-22T03:47:46.436Z,11.50
2023-04-22T03:50:22.128Z,11.10
2023-04-22T03:52:50.385Z,11.50
2023-04-22T03:55:19.919Z,14.40
2023-04-22T03:57:48.082Z,13.40
2023-04-22T04:00:16.096Z,13.60
2023-04-22T04:02:45.162Z,14.80
2023-04-22T04:05:16.859Z,18.20
2023-04-22T04:07:44.779Z,11.10
2023-04-22T04:10:14.046Z,13.70
2023-04-22T04:12:41.867Z,13.30
2023-04-22T04:15:10.563Z,14.00
2023-04-22T04:17:38.449Z,14.20
2023-04-22T04:20:07.428Z,14.50
2023-04-22T04:25:06.940Z,15.00
2023-04-22T04:27:39.254Z,18.50
2023-04-22T04:30:08.132Z,14.40
2023-04-22T04:32:43.101Z,13.50
2023-04-22T04:35:16.084Z,14.70
2023-04-22T04:37:47.391Z,17.10
2023-04-22T04:40:16.335Z,13.50
2023-04-22T04:42:48.578Z,17.30
2023-04-22T04:45:20.748Z,14.10
2023-04-22T04:47:50.828Z,16.00
2023-04-22T04:50:23.371Z,12.90
2023-04-22T04:52:52.725Z,17.60
2023-04-22T04:55:24.301Z,15.90
2023-04-22T04:57:52.601Z,15.80
2023-04-22T05:00:20.574Z,13.60
2023-04-22T05:02:49.077Z,17.20
2023-04-22T05:05:17.008Z,14.00
2023-04-22T05:07:44.975Z,17.10
2023-04-22T05:10:13.783Z,18.40
2023-04-22T05:12:42.065Z,14.40
2023-04-22T05:15:11.834Z,15.70
2023-04-22T05:17:40.705Z,11.60
2023-04-22T05:20:09.482Z,14.30
2023-04-22T05:22:37.433Z,9.30
2023-04-22T05:25:05.709Z,10.20
2023-04-22T05:27:35.519Z,9.80
2023-04-22T05:30:04.486Z,10.90
2023-04-22T05:32:32.790Z,13.00
2023-04-22T05:35:01.381Z,12.80
2023-04-22T05:37:29.334Z,15.00
2023-04-22T05:39:57.117Z,12.60
2023-04-22T05:42:25.260Z,9.70
2023-04-22T05:44:53.418Z,6.80
2023-04-22T05:47:21.380Z,10.30
2023-04-22T05:49:49.886Z,6.20
2023-04-22T05:52:30.495Z,10.00
2023-04-22T05:55:04.388Z,7.70
2023-04-22T05:57:32.261Z,7.60
2023-04-22T06:00:00.826Z,8.20
2023-04-22T06:02:28.706Z,8.00
2023-04-22T06:04:58.214Z,8.30
2023-04-22T06:07:26.577Z,8.90
2023-04-22T06:10:03.802Z,7.40
2023-04-22T06:12:34.516Z,7.70
2023-04-22T06:17:30.496Z,7.00
2023-04-22T06:19:58.780Z,9.70
2023-04-22T06:22:26.647Z,6.20
2023-04-22T06:24:54.445Z,7.50
2023-04-22T06:27:22.304Z,7.60
2023-04-22T06:29:50.096Z,9.10
2023-04-22T06:32:17.939Z,6.60
2023-04-22T06:34:45.775Z,8.90
2023-04-22T06:37:13.662Z,7.70
2023-04-22T06:39:41.868Z,9.50
2023-04-22T06:42:41.866Z,7.80
2023-04-22T06:45:39.274Z,5.10
2023-04-22T06:48:42.539Z,8.50
2023-04-22T06:51:21.340Z,11.60
2023-04-22T06:53:49.237Z,8.70
2023-04-22T06:56:17.278Z,10.10
2023-04-22T06:58:45.107Z,8.70
2023-04-22T07:01:13.193Z,7.20
2023-04-22T07:03:41.759Z,8.00
2023-04-22T07:06:12.124Z,7.70
2023-04-22T07:08:40.248Z,8.10
2023-04-22T07:11:09.027Z,6.20
2023-04-22T07:14:03.040Z,10.10
2023-04-22T07:16:31.077Z,10.00
2023-04-22T07:18:59.288Z,7.30
2023-04-22T07:21:27.048Z,8.00
2023-04-22T07:23:54.929Z,6.70
2023-04-22T07:26:22.699Z,7.60
2023-04-22T07:28:50.490Z,8.50
2023-04-22T07:31:18.416Z,4.70
2023-04-22T07:33:46.383Z,5.50
2023-04-22T07:36:14.074Z,5.70
2023-04-22T07:38:41.800Z,8.10
2023-04-22T07:41:09.644Z,6.90
2023-04-22T07:43:37.585Z,7.20
2023-04-22T07:46:05.395Z,4.50
2023-04-22T07:48:33.186Z,4.70
2023-04-22T07:51:00.957Z,6.40
2023-04-22T07:53:28.750Z,4.40
2023-04-22T07:55:56.635Z,3.60
2023-04-22T07:58:24.334Z,5.10
2023-04-22T08:00:52.147Z,4.70
2023-04-22T08:03:20.061Z,4.90
2023-04-22T08:05:48.046Z,3.10
2023-04-22T08:08:15.783Z,5.00
2023-04-22T08:10:43.554Z,8.10
2023-04-22T08:13:11.604Z,5.10
2023-04-22T08:15:40.001Z,3.60
2023-04-22T08:18:07.848Z,3.70
2023-04-22T08:20:35.633Z,4.30
2023-04-22T08:23:03.418Z,3.90
2023-04-22T08:25:31.613Z,4.40
2023-04-22T08:27:59.407Z,3.70
2023-04-22T08:30:27.174Z,3.60
2023-04-22T08:32:55.079Z,6.10
2023-04-22T08:35:22.846Z,5.60
2023-04-22T08:37:50.668Z,5.50
2023-04-22T08:40:18.496Z,6.50
2023-04-22T08:42:47.010Z,3.70
2023-04-22T08:45:16.111Z,4.60
2023-04-22T08:50:12.122Z,4.00
2023-04-22T08:52:44.179Z,6.10
2023-04-22T08:55:11.906Z,3.90
2023-04-22T08:57:41.035Z,3.50
2023-04-22T09:00:09.853Z,5.60
2023-04-22T09:02:38.818Z,3.90
2023-04-22T09:05:09.141Z,6.40
2023-04-22T09:07:38.674Z,4.80
2023-04-22T09:10:08.382Z,5.20
2023-04-22T09:12:37.481Z,4.10
2023-04-22T09:15:07.325Z,6.10
2023-04-22T09:17:38.349Z,2.50
2023-04-22T09:20:08.781Z,3.50
2023-04-22T09:22:48.534Z,3.50
2023-04-22T09:25:17.643Z,3.90
2023-04-22T09:28:03.849Z,7.30
2023-04-22T09:30:37.695Z,4.70
2023-04-22T09:33:07.397Z,3.40
2023-04-22T09:35:37.871Z,5.20
2023-04-22T09:38:08.276Z,4.40
2023-04-22T09:40:37.968Z,4.10
2023-04-22T09:43:07.675Z,4.50
2023-04-22T09:45:36.311Z,4.00
2023-04-22T09:48:17.833Z,3.60
2023-04-22T09:50:49.334Z,3.90
2023-04-22T09:53:20.315Z,3.30
2023-04-22T09:55:51.282Z,3.60
2023-04-22T09:58:21.486Z,4.90
2023-04-22T10:00:58.181Z,3.20
2023-04-22T10:03:26.228Z,5.90
2023-04-22T10:05:54.090Z,4.20
2023-04-22T10:08:21.884Z,4.20
2023-04-22T10:10:49.624Z,6.40
2023-04-22T10:13:17.360Z,3.30
2023-04-22T10:15:53.569Z,5.10
2023-04-22T10:18:29.721Z,3.30
2023-04-22T10:20:59.169Z,4.00
2023-04-22T10:23:32.998Z,3.30
2023-04-22T10:26:01.046Z,4.00
2023-04-22T10:28:30.304Z,3.60
2023-04-22T10:30:58.142Z,3.50
2023-04-22T10:33:28.939Z,4.20
2023-04-22T10:36:06.068Z,3.50
2023-04-22T10:38:57.766Z,3.10
2023-04-22T10:41:29.136Z,3.60
2023-04-22T10:44:01.696Z,3.30
2023-04-22T10:46:32.903Z,3.80
2023-04-22T10:49:11.290Z,3.40
2023-04-22T10:51:39.162Z,4.90
2023-04-22T10:54:07.593Z,3.70
2023-04-22T10:56:37.469Z,3.60
2023-04-22T10:59:17.242Z,5.80
2023-04-22T11:01:45.283Z,3.30
2023-04-22T11:04:20.881Z,4.90
2023-04-22T11:07:26.731Z,3.80
2023-04-22T11:10:09.667Z,4.00
2023-04-22T11:12:42.052Z,4.60
2023-04-22T11:15:13.233Z,3.90
2023-04-22T11:17:52.148Z,3.60
2023-04-22T11:20:20.635Z,2.80
2023-04-22T11:22:56.794Z,3.20
2023-04-22T11:25:26.203Z,4.00
2023-04-22T11:27:55.389Z,3.30
2023-04-22T11:30:25.024Z,7.00
2023-04-22T11:32:55.975Z,3.90
2023-04-22T11:35:27.063Z,2.90
2023-04-22T11:38:01.327Z,4.20
2023-04-22T11:40:33.319Z,4.20
2023-04-22T11:43:05.105Z,3.50
2023-04-22T11:45:34.877Z,3.20
2023-04-22T11:48:05.390Z,3.90
2023-04-22T11:50:38.452Z,3.60
2023-04-22T11:53:20.959Z,3.70
2023-04-22T11:55:51.248Z,3.50
2023-04-22T11:58:27.368Z,3.30
2023-04-22T12:00:58.592Z,7.80
2023-04-22T12:03:31.398Z,5.00
2023-04-22T12:06:04.744Z,2.70
2023-04-22T12:08:35.664Z,3.20
2023-04-22T12:11:05.969Z,3.20
2023-04-22T12:13:42.221Z,3.10
2023-04-22T12:16:13.442Z,3.70
2023-04-22T12:18:47.925Z,3.60
2023-04-22T12:21:19.100Z,3.50
2023-04-22T12:23:54.141Z,3.60
2023-04-22T12:26:26.686Z,3.80
2023-04-22T12:28:57.028Z,3.40
2023-04-22T12:31:25.289Z,2.50
2023-04-22T12:33:54.174Z,4.60
2023-04-22T12:38:51.114Z,2.60
2023-04-22T12:43:47.075Z,3.50
2023-04-22T12:46:15.098Z,2.20
2023-04-22T12:48:43.082Z,3.30
2023-04-22T12:51:10.866Z,2.30
2023-04-22T12:53:38.666Z,2.70
2023-04-22T12:56:06.468Z,2.90
2023-04-22T12:58:34.174Z,2.10
2023-04-22T13:01:01.932Z,1.90
2023-04-22T13:03:29.846Z,3.00
2023-04-22T13:05:57.722Z,2.90
2023-04-22T13:08:25.997Z,4.20
2023-04-22T13:10:54.099Z,3.20
2023-04-22T13:13:21.865Z,2.40
2023-04-22T13:15:53.828Z,2.40
2023-04-22T13:18:23.681Z,4.10
2023-04-22T13:20:51.747Z,4.00
2023-04-22T13:23:21.923Z,1.80
2023-04-22T13:25:50.568Z,2.70
2023-04-22T13:28:19.028Z,2.60
2023-04-22T13:30:47.089Z,2.80
2023-04-22T13:33:14.957Z,2.70
2023-04-22T13:35:43.032Z,3.00
2023-04-22T13:38:11.002Z,2.90
2023-04-22T13:40:38.810Z,3.90
2023-04-22T13:43:08.812Z,2.40
2023-04-22T13:45:37.047Z,3.20
2023-04-22T13:48:05.198Z,2.60
2023-04-22T13:50:34.046Z,1.90
2023-04-22T13:53:03.939Z,2.00
2023-04-22T13:55:31.839Z,2.50
2023-04-22T13:58:01.270Z,3.40
2023-04-22T14:00:29.154Z,7.80
2023-04-22T14:02:57.336Z,3.80
2023-04-22T14:05:25.886Z,1.50
2023-04-22T14:07:54.501Z,4.00
2023-04-22T14:10:22.543Z,2.40
2023-04-22T14:12:50.865Z,4.50
2023-04-22T14:15:19.205Z,3.90
2023-04-22T14:17:49.524Z,2.80
2023-04-22T14:20:18.087Z,2.30
2023-04-22T14:22:46.483Z,2.90
2023-04-22T14:25:14.788Z,2.90
2023-04-22T14:27:42.940Z,2.20
2023-04-22T14:30:11.416Z,3.80
2023-04-22T14:32:39.304Z,3.80
2023-04-22T14:35:07.332Z,2.50
2023-04-22T14:37:35.831Z,4.00
2023-04-22T14:40:04.281Z,2.90
2023-04-22T14:42:32.207Z,1.80
2023-04-22T14:45:00.134Z,2.70
2023-04-22T14:47:28.135Z,2.20
2023-04-22T14:49:56.389Z,2.40
2023-04-22T14:52:24.415Z,3.00
2023-04-22T14:54:52.306Z,3.20
2023-04-22T14:57:20.102Z,3.30
2023-04-22T14:59:48.163Z,5.10
2023-04-22T15:02:16.338Z,3.50
2023-04-22T15:04:44.573Z,4.30
2023-04-22T15:07:12.432Z,3.50
2023-04-22T15:09:40.608Z,2.20
2023-04-22T15:12:08.592Z,4.30
2023-04-22T15:14:36.652Z,2.80
2023-04-22T15:17:05.727Z,2.90
2023-04-22T15:19:33.528Z,4.00
2023-04-22T15:22:01.581Z,3.10
2023-04-22T15:24:29.326Z,3.00
2023-04-22T15:26:58.056Z,3.90
2023-04-22T15:29:26.664Z,3.30
2023-04-22T15:31:55.117Z,3.40
2023-04-22T15:34:23.889Z,3.40
2023-04-22T15:36:51.847Z,3.60
2023-04-22T15:39:20.803Z,4.40
2023-04-22T15:44:16.849Z,2.70
2023-04-22T15:46:46.020Z,4.00
2023-04-22T15:49:14.895Z,4.80
2023-04-22T15:51:43.214Z,5.10
2023-04-22T15:54:12.341Z,3.80
2023-04-22T15:56:40.580Z,5.70
2023-04-22T15:59:08.362Z,2.50
2023-04-22T16:01:38.637Z,3.30
2023-04-22T16:04:07.715Z,9.40
2023-04-22T16:06:36.513Z,3.40
2023-04-22T16:09:05.018Z,2.60
2023-04-22T16:11:32.827Z,7.30
2023-04-22T16:14:02.038Z,3.00
2023-04-22T16:16:30.383Z,6.00
2023-04-22T16:18:59.904Z,3.10
2023-04-22T16:21:28.858Z,3.20
2023-04-22T16:23:56.705Z,3.20
2023-04-22T16:26:24.536Z,1.90
2023-04-22T16:28:52.278Z,2.60
2023-04-22T16:31:23.065Z,2.90
2023-04-22T16:33:51.852Z,2.30
2023-04-22T16:36:19.605Z,2.60
2023-04-22T16:38:47.310Z,2.20
2023-04-22T16:41:15.536Z,2.20
2023-04-22T16:43:43.361Z,3.70
2023-04-22T16:46:11.459Z,2.50
2023-04-22T16:48:39.444Z,3.80
2023-04-22T16:51:07.287Z,3.50
2023-04-22T16:53:35.895Z,6.70
2023-04-22T16:56:03.771Z,6.40
2023-04-22T16:58:31.555Z,8.10
2023-04-22T17:00:59.394Z,5.30
2023-04-22T17:03:27.254Z,5.50
2023-04-22T17:05:55.741Z,4.40
2023-04-22T17:08:23.516Z,5.10
2023-04-22T17:10:52.467Z,6.20
2023-04-22T17:13:20.873Z,3.90
2023-04-22T17:15:48.764Z,4.40
2023-04-22T17:18:16.621Z,12.20
2023-04-22T17:20:44.537Z,5.20
2023-04-22T17:23:12.322Z,5.90
2023-04-22T17:25:40.125Z,5.10
2023-04-22T17:28:08.093Z,3.40
2023-04-22T17:30:36.149Z,9.10
2023-04-22T17:33:04.094Z,7.30
2023-04-22T17:35:31.858Z,2.60
2023-04-22T17:37:59.594Z,4.90
2023-04-22T17:40:27.391Z,5.80
2023-04-22T17:42:55.744Z,6.00
2023-04-22T17:45:23.671Z,5.30
2023-04-22T17:47:51.455Z,9.50
2023-04-22T17:50:19.704Z,11.70
2023-04-22T17:52:47.567Z,13.60
2023-04-22T17:55:15.546Z,19.80
2023-04-22T17:57:43.252Z,20.00
2023-04-22T18:00:11.737Z,17.70
2023-04-22T18:02:41.864Z,14.30
2023-04-22T18:05:10.053Z,18.50
2023-04-22T18:07:37.849Z,20.30
2023-04-22T18:10:07.525Z,17.50
2023-04-22T18:12:35.504Z,18.30
2023-04-22T18:15:04.754Z,22.70
2023-04-22T18:17:32.717Z,33.80
2023-04-22T18:20:10.261Z,38.00
2023-04-22T18:22:45.581Z,37.10
2023-04-22T18:25:13.438Z,32.10
2023-04-22T18:27:41.798Z,37.10
2023-04-22T18:30:10.200Z,27.90
2023-04-22T18:32:38.647Z,19.40
2023-04-22T18:35:07.284Z,18.10
2023-04-22T18:37:35.186Z,16.40
2023-04-22T18:40:03.075Z,13.90
2023-04-22T18:42:30.837Z,15.40
2023-04-22T18:44:58.655Z,19.90
2023-04-22T18:47:26.842Z,14.60
2023-04-22T18:49:54.780Z,15.10
2023-04-22T18:52:22.477Z,11.40
2023-04-22T18:54:50.366Z,12.00
2023-04-22T18:57:18.191Z,11.00
2023-04-22T18:59:46.216Z,16.10
2023-04-22T19:02:14.082Z,11.10
2023-04-22T19:04:42.281Z,9.50
2023-04-22T19:07:10.487Z,12.90
2023-04-22T19:09:38.296Z,11.30
2023-04-22T19:12:13.457Z,12.20
2023-04-22T19:14:41.723Z,11.60
2023-04-22T19:17:10.114Z,11.80
2023-04-22T19:19:38.104Z,15.60
2023-04-22T19:22:05.988Z,10.60
2023-04-22T19:24:35.271Z,10.20
2023-04-22T19:29:31.541Z,8.60
2023-04-22T19:31:59.855Z,11.40
2023-04-22T19:34:28.676Z,9.70
2023-04-22T19:36:56.485Z,10.00
2023-04-22T19:39:24.454Z,14.30
2023-04-22T19:41:52.455Z,10.90
2023-04-22T19:44:20.214Z,11.70
2023-04-22T19:46:48.432Z,12.10
2023-04-22T19:49:17.542Z,22.70
2023-04-22T19:51:45.945Z,15.40
2023-04-22T19:54:14.978Z,16.90
2023-04-22T19:56:43.451Z,10.10
2023-04-22T19:59:13.086Z,7.00
2023-04-22T20:01:41.306Z,10.30
2023-04-22T20:04:09.472Z,7.60
2023-04-22T20:06:38.187Z,30.90
2023-04-22T20:09:07.147Z,30.90
2023-04-22T20:11:35.304Z,44.30
2023-04-22T20:14:07.365Z,75.10
2023-04-22T20:16:36.293Z,45.60
2023-04-22T20:19:04.619Z,19.70
2023-04-22T20:21:34.453Z,12.20
2023-04-22T20:24:04.365Z,10.90
2023-04-22T20:26:32.718Z,9.90
2023-04-22T20:29:01.288Z,8.90
2023-04-22T20:31:29.362Z,8.10
2023-04-22T20:33:57.291Z,9.10
2023-04-22T20:36:26.492Z,10.30
2023-04-22T20:38:55.062Z,10.00
2023-04-22T20:41:24.612Z,7.80
2023-04-22T20:43:53.163Z,9.50
2023-04-22T20:46:23.093Z,8.10
2023-04-22T20:48:51.735Z,9.50
2023-04-22T20:51:19.624Z,8.40
2023-04-22T20:53:47.436Z,7.60
2023-04-22T20:56:15.723Z,9.50
2023-04-22T20:58:43.447Z,9.20
2023-04-22T21:01:12.161Z,13.40
2023-04-22T21:03:40.284Z,20.70
2023-04-22T21:06:09.064Z,11.90
2023-04-22T21:08:39.417Z,13.30
2023-04-22T21:11:07.507Z,13.10
2023-04-22T21:13:35.927Z,11.00
2023-04-22T21:16:07.908Z,10.30
2023-04-22T21:18:39.486Z,10.90
2023-04-22T21:21:08.226Z,9.40
2023-04-22T21:23:36.617Z,9.90
2023-04-22T21:26:05.494Z,9.70
2023-04-22T21:28:33.596Z,11.80
2023-04-22T21:31:01.699Z,10.30
2023-04-22T21:33:29.460Z,9.30
2023-04-22T21:35:57.260Z,8.40
2023-04-22T21:38:25.692Z,7.70
2023-04-22T21:40:53.525Z,9.10
2023-04-22T21:43:21.285Z,7.60
2023-04-22T21:45:49.265Z,7.00
2023-04-22T21:48:17.174Z,11.40
2023-04-22T21:50:44.898Z,6.50
2023-04-22T21:53:13.187Z,10.50
2023-04-22T21:55:41.661Z,8.80
2023-04-22T21:58:09.450Z,6.10
2023-04-22T22:00:37.896Z,8.10
2023-04-22T22:03:06.233Z,8.10
2023-04-22T22:05:34.261Z,8.70
2023-04-22T22:08:02.042Z,8.30
2023-04-22T22:10:30.067Z,8.00
2023-04-22T22:12:57.795Z,7.00
2023-04-22T22:15:25.666Z,8.00
2023-04-22T22:17:53.484Z,7.30
2023-04-22T22:20:21.308Z,9.60
2023-04-22T22:22:48.998Z,8.50
2023-04-22T22:25:17.083Z,9.60
2023-04-22T22:27:46.719Z,9.10
2023-04-22T22:30:19.036Z,10.50
2023-04-22T22:32:47.043Z,12.40
2023-04-22T22:35:15.206Z,10.40
2023-04-22T22:37:44.779Z,9.90
2023-04-22T22:42:40.657Z,11.10
2023-04-22T22:45:09.156Z,12.90
2023-04-22T22:47:37.189Z,12.20
2023-04-22T22:50:07.008Z,12.80
2023-04-22T22:52:34.798Z,18.20
2023-04-22T22:55:02.670Z,11.70
2023-04-22T22:57:30.419Z,10.70
2023-04-22T22:59:58.214Z,10.00
2023-04-22T23:02:26.421Z,9.90
2023-04-22T23:04:54.984Z,10.80
2023-04-22T23:07:22.694Z,12.90
2023-04-22T23:09:50.516Z,15.40
2023-04-22T23:12:18.288Z,15.50
2023-04-22T23:14:46.025Z,14.40
2023-04-22T23:17:13.816Z,14.60
2023-04-22T23:19:43.223Z,14.40
2023-04-22T23:22:12.475Z,17.10
2023-04-22T23:24:40.807Z,15.20
2023-04-22T23:27:09.016Z,17.70
2023-04-22T23:29:37.369Z,21.60
2023-04-22T23:32:07.555Z,29.40
2023-04-22T23:34:35.851Z,27.60
2023-04-22T23:37:06.046Z,30.50
2023-04-22T23:39:33.972Z,46.30
2023-04-22T23:42:02.546Z,31.50
2023-04-22T23:44:30.280Z,27.90
2023-04-22T23:46:58.101Z,31.70
2023-04-22T23:49:25.855Z,39.80
2023-04-22T23:51:53.812Z,15.00
2023-04-22T23:54:22.182Z,14.50
2023-04-22T23:56:50.564Z,17.20
2023-04-22T23:59:18.629Z,15.90
